sensor_id;sensor_type;location;lat;lon;timestamp;P1;durP1;ratioP1;P2;durP2;ratioP2
48925;SDS011;39838;59.938;30.642;2022-10-29T00:01:01;10.05;;;5.80;;
48925;SDS011;39838;59.938;30.642;2022-10-29T00:03:28;7.18;;;4.97;;
48925;SDS011;39838;59.938;30.642;2022-10-29T00:05:58;7.10;;;4.78;;
48925;SDS011;39838;59.938;30.642;2022-10-29T00:08:27;9.15;;;4.90;;
48925;SDS011;39838;59.938;30.642;2022-10-29T00:10:55;7.22;;;4.55;;
48925;SDS011;39838;59.938;30.642;2022-10-29T00:13:22;6.05;;;4.20;;
48925;SDS011;39838;59.938;30.642;2022-10-29T00:15:49;5.95;;;4.25;;
48925;SDS011;39838;59.938;30.642;2022-10-29T00:18:16;7.22;;;4.05;;
48925;SDS011;39838;59.938;30.642;2022-10-29T00:20:43;6.00;;;3.83;;
48925;SDS011;39838;59.938;30.642;2022-10-29T00:23:14;9.07;;;4.30;;
48925;SDS011;39838;59.938;30.642;2022-10-29T00:25:41;7.50;;;4.30;;
48925;SDS011;39838;59.938;30.642;2022-10-29T00:28:08;6.95;;;4.00;;
48925;SDS011;39838;59.938;30.642;2022-10-29T00:30:35;6.95;;;4.43;;
48925;SDS011;39838;59.938;30.642;2022-10-29T00:33:02;7.65;;;4.40;;
48925;SDS011;39838;59.938;30.642;2022-10-29T00:35:29;6.75;;;4.20;;
48925;SDS011;39838;59.938;30.642;2022-10-29T00:37:56;9.05;;;4.45;;
48925;SDS011;39838;59.938;30.642;2022-10-29T00:40:26;7.75;;;4.50;;
48925;SDS011;39838;59.938;30.642;2022-10-29T00:43:09;8.60;;;4.38;;
48925;SDS011;39838;59.938;30.642;2022-10-29T00:45:37;9.05;;;4.65;;
48925;SDS011;39838;59.938;30.642;2022-10-29T00:48:07;8.40;;;4.13;;
48925;SDS011;39838;59.938;30.642;2022-10-29T00:50:34;7.22;;;4.43;;
48925;SDS011;39838;59.938;30.642;2022-10-29T00:53:02;7.78;;;4.60;;
48925;SDS011;39838;59.938;30.642;2022-10-29T00:55:30;9.52;;;5.00;;
48925;SDS011;39838;59.938;30.642;2022-10-29T00:57:58;7.32;;;4.32;;
48925;SDS011;39838;59.938;30.642;2022-10-29T01:00:25;7.05;;;4.35;;
48925;SDS011;39838;59.938;30.642;2022-10-29T01:02:52;7.85;;;4.28;;
48925;SDS011;39838;59.938;30.642;2022-10-29T01:05:20;5.97;;;4.53;;
48925;SDS011;39838;59.938;30.642;2022-10-29T01:07:50;6.78;;;4.20;;
48925;SDS011;39838;59.938;30.642;2022-10-29T01:10:18;7.35;;;4.50;;
48925;SDS011;39838;59.938;30.642;2022-10-29T01:13:07;6.70;;;4.80;;
48925;SDS011;39838;59.938;30.642;2022-10-29T01:15:47;6.57;;;4.50;;
48925;SDS011;39838;59.938;30.642;2022-10-29T01:18:27;7.82;;;4.50;;
48925;SDS011;39838;59.938;30.642;2022-10-29T01:24:16;9.00;;;4.60;;
48925;SDS011;39838;59.938;30.642;2022-10-29T01:27:41;7.03;;;4.30;;
48925;SDS011;39838;59.938;30.642;2022-10-29T01:30:19;7.22;;;3.92;;
48925;SDS011;39838;59.938;30.642;2022-10-29T01:33:05;9.10;;;4.13;;
48925;SDS011;39838;59.938;30.642;2022-10-29T01:35:40;5.20;;;4.10;;
48925;SDS011;39838;59.938;30.642;2022-10-29T01:40:53;7.68;;;4.25;;
48925;SDS011;39838;59.938;30.642;2022-10-29T01:43:26;7.50;;;4.10;;
48925;SDS011;39838;59.938;30.642;2022-10-29T01:45:59;5.55;;;4.10;;
48925;SDS011;39838;59.938;30.642;2022-10-29T01:48:32;9.52;;;4.25;;
48925;SDS011;39838;59.938;30.642;2022-10-29T01:51:04;6.22;;;4.15;;
48925;SDS011;39838;59.938;30.642;2022-10-29T01:53:36;5.85;;;4.07;;
48925;SDS011;39838;59.938;30.642;2022-10-29T01:56:05;8.07;;;4.38;;
48925;SDS011;39838;59.938;30.642;2022-10-29T01:58:32;6.28;;;4.05;;
48925;SDS011;39838;59.938;30.642;2022-10-29T02:01:03;6.00;;;4.35;;
48925;SDS011;39838;59.938;30.642;2022-10-29T02:03:40;5.38;;;4.20;;
48925;SDS011;39838;59.938;30.642;2022-10-29T02:06:17;6.28;;;4.18;;
48925;SDS011;39838;59.938;30.642;2022-10-29T02:08:52;8.07;;;4.80;;
48925;SDS011;39838;59.938;30.642;2022-10-29T02:11:30;5.72;;;4.15;;
48925;SDS011;39838;59.938;30.642;2022-10-29T02:14:09;6.00;;;4.25;;
48925;SDS011;39838;59.938;30.642;2022-10-29T02:16:40;7.22;;;4.10;;
48925;SDS011;39838;59.938;30.642;2022-10-29T02:19:10;6.07;;;4.05;;
48925;SDS011;39838;59.938;30.642;2022-10-29T02:21:37;6.07;;;3.97;;
48925;SDS011;39838;59.938;30.642;2022-10-29T02:24:05;7.93;;;4.40;;
48925;SDS011;39838;59.938;30.642;2022-10-29T02:26:32;7.53;;;4.20;;
48925;SDS011;39838;59.938;30.642;2022-10-29T02:29:00;7.28;;;4.20;;
48925;SDS011;39838;59.938;30.642;2022-10-29T02:31:27;5.30;;;4.03;;
48925;SDS011;39838;59.938;30.642;2022-10-29T02:33:54;7.15;;;4.03;;
48925;SDS011;39838;59.938;30.642;2022-10-29T02:36:23;6.63;;;4.00;;
48925;SDS011;39838;59.938;30.642;2022-10-29T02:38:50;6.43;;;4.07;;
48925;SDS011;39838;59.938;30.642;2022-10-29T02:41:17;6.47;;;4.32;;
48925;SDS011;39838;59.938;30.642;2022-10-29T02:43:44;6.00;;;3.67;;
48925;SDS011;39838;59.938;30.642;2022-10-29T02:46:12;7.53;;;4.35;;
48925;SDS011;39838;59.938;30.642;2022-10-29T02:48:40;7.43;;;4.05;;
48925;SDS011;39838;59.938;30.642;2022-10-29T02:51:08;6.72;;;4.65;;
48925;SDS011;39838;59.938;30.642;2022-10-29T02:53:36;6.53;;;4.28;;
48925;SDS011;39838;59.938;30.642;2022-10-29T02:56:04;8.02;;;4.80;;
48925;SDS011;39838;59.938;30.642;2022-10-29T02:58:32;7.35;;;4.90;;
48925;SDS011;39838;59.938;30.642;2022-10-29T03:00:59;7.63;;;4.53;;
48925;SDS011;39838;59.938;30.642;2022-10-29T03:03:27;7.43;;;4.45;;
48925;SDS011;39838;59.938;30.642;2022-10-29T03:05:54;5.97;;;4.53;;
48925;SDS011;39838;59.938;30.642;2022-10-29T03:08:21;6.15;;;4.63;;
48925;SDS011;39838;59.938;30.642;2022-10-29T03:10:50;5.95;;;4.68;;
48925;SDS011;39838;59.938;30.642;2022-10-29T03:13:17;6.55;;;4.70;;
48925;SDS011;39838;59.938;30.642;2022-10-29T03:15:44;7.15;;;5.10;;
48925;SDS011;39838;59.938;30.642;2022-10-29T03:18:11;6.80;;;4.85;;
48925;SDS011;39838;59.938;30.642;2022-10-29T03:20:38;7.22;;;4.88;;
48925;SDS011;39838;59.938;30.642;2022-10-29T03:23:05;7.78;;;5.20;;
48925;SDS011;39838;59.938;30.642;2022-10-29T03:25:33;6.28;;;4.90;;
48925;SDS011;39838;59.938;30.642;2022-10-29T03:28:01;8.50;;;5.10;;
48925;SDS011;39838;59.938;30.642;2022-10-29T03:30:28;8.38;;;5.35;;
48925;SDS011;39838;59.938;30.642;2022-10-29T03:32:55;7.25;;;5.38;;
48925;SDS011;39838;59.938;30.642;2022-10-29T03:35:22;7.03;;;5.05;;
48925;SDS011;39838;59.938;30.642;2022-10-29T03:37:50;6.63;;;5.15;;
48925;SDS011;39838;59.938;30.642;2022-10-29T03:40:17;8.70;;;5.20;;
48925;SDS011;39838;59.938;30.642;2022-10-29T03:42:45;7.28;;;5.00;;
48925;SDS011;39838;59.938;30.642;2022-10-29T03:45:14;6.68;;;4.80;;
48925;SDS011;39838;59.938;30.642;2022-10-29T03:47:41;7.75;;;5.00;;
48925;SDS011;39838;59.938;30.642;2022-10-29T03:50:08;7.35;;;4.55;;
48925;SDS011;39838;59.938;30.642;2022-10-29T03:52:35;8.57;;;4.82;;
48925;SDS011;39838;59.938;30.642;2022-10-29T03:55:03;7.20;;;5.00;;
48925;SDS011;39838;59.938;30.642;2022-10-29T03:57:31;7.95;;;4.75;;
48925;SDS011;39838;59.938;30.642;2022-10-29T03:59:58;8.90;;;5.13;;
48925;SDS011;39838;59.938;30.642;2022-10-29T04:02:27;8.75;;;4.80;;
48925;SDS011;39838;59.938;30.642;2022-10-29T04:04:54;10.60;;;4.60;;
48925;SDS011;39838;59.938;30.642;2022-10-29T04:07:22;9.80;;;4.78;;
48925;SDS011;39838;59.938;30.642;2022-10-29T04:09:49;7.53;;;4.80;;
48925;SDS011;39838;59.938;30.642;2022-10-29T04:12:16;5.90;;;4.32;;
48925;SDS011;39838;59.938;30.642;2022-10-29T04:14:43;8.43;;;4.78;;
48925;SDS011;39838;59.938;30.642;2022-10-29T04:17:12;9.98;;;4.88;;
48925;SDS011;39838;59.938;30.642;2022-10-29T04:19:41;7.63;;;4.97;;
48925;SDS011;39838;59.938;30.642;2022-10-29T04:22:08;6.78;;;4.70;;
48925;SDS011;39838;59.938;30.642;2022-10-29T04:24:35;25.92;;;5.05;;
48925;SDS011;39838;59.938;30.642;2022-10-29T04:27:02;10.02;;;4.80;;
48925;SDS011;39838;59.938;30.642;2022-10-29T04:29:30;8.43;;;4.90;;
48925;SDS011;39838;59.938;30.642;2022-10-29T04:31:57;8.18;;;5.18;;
48925;SDS011;39838;59.938;30.642;2022-10-29T04:34:24;134.48;;;9.38;;
48925;SDS011;39838;59.938;30.642;2022-10-29T04:36:52;17.67;;;5.90;;
48925;SDS011;39838;59.938;30.642;2022-10-29T04:39:19;31.50;;;6.63;;
48925;SDS011;39838;59.938;30.642;2022-10-29T04:41:47;94.78;;;9.32;;
48925;SDS011;39838;59.938;30.642;2022-10-29T04:44:14;27.35;;;7.13;;
48925;SDS011;39838;59.938;30.642;2022-10-29T04:46:41;129.98;;;10.90;;
48925;SDS011;39838;59.938;30.642;2022-10-29T04:49:08;15.25;;;6.60;;
48925;SDS011;39838;59.938;30.642;2022-10-29T04:51:36;15.63;;;6.70;;
48925;SDS011;39838;59.938;30.642;2022-10-29T04:54:04;9.65;;;6.25;;
48925;SDS011;39838;59.938;30.642;2022-10-29T04:56:31;24.92;;;7.20;;
48925;SDS011;39838;59.938;30.642;2022-10-29T04:58:58;25.15;;;7.95;;
48925;SDS011;39838;59.938;30.642;2022-10-29T05:01:25;11.85;;;6.38;;
48925;SDS011;39838;59.938;30.642;2022-10-29T05:03:52;144.25;;;11.82;;
48925;SDS011;39838;59.938;30.642;2022-10-29T05:06:19;22.55;;;7.82;;
48925;SDS011;39838;59.938;30.642;2022-10-29T05:08:47;24.60;;;7.85;;
48925;SDS011;39838;59.938;30.642;2022-10-29T05:11:15;79.35;;;9.90;;
48925;SDS011;39838;59.938;30.642;2022-10-29T05:13:42;30.52;;;8.30;;
48925;SDS011;39838;59.938;30.642;2022-10-29T05:16:09;15.95;;;7.55;;
48925;SDS011;39838;59.938;30.642;2022-10-29T05:18:36;13.27;;;7.75;;
48925;SDS011;39838;59.938;30.642;2022-10-29T05:21:04;54.05;;;8.80;;
48925;SDS011;39838;59.938;30.642;2022-10-29T05:23:31;20.00;;;7.45;;
48925;SDS011;39838;59.938;30.642;2022-10-29T05:25:58;32.30;;;8.05;;
48925;SDS011;39838;59.938;30.642;2022-10-29T05:28:27;17.60;;;7.07;;
48925;SDS011;39838;59.938;30.642;2022-10-29T05:30:54;17.58;;;8.23;;
48925;SDS011;39838;59.938;30.642;2022-10-29T05:33:22;16.08;;;6.85;;
48925;SDS011;39838;59.938;30.642;2022-10-29T05:35:50;19.35;;;7.80;;
48925;SDS011;39838;59.938;30.642;2022-10-29T05:38:17;71.60;;;10.02;;
48925;SDS011;39838;59.938;30.642;2022-10-29T05:40:45;19.85;;;8.00;;
48925;SDS011;39838;59.938;30.642;2022-10-29T05:43:12;132.52;;;12.30;;
48925;SDS011;39838;59.938;30.642;2022-10-29T05:45:42;184.95;;;14.00;;
48925;SDS011;39838;59.938;30.642;2022-10-29T05:48:10;15.65;;;8.20;;
48925;SDS011;39838;59.938;30.642;2022-10-29T05:50:37;47.70;;;9.10;;
48925;SDS011;39838;59.938;30.642;2022-10-29T05:53:05;26.27;;;7.90;;
48925;SDS011;39838;59.938;30.642;2022-10-29T05:55:33;15.55;;;7.78;;
48925;SDS011;39838;59.938;30.642;2022-10-29T05:58:02;67.15;;;9.68;;
48925;SDS011;39838;59.938;30.642;2022-10-29T06:00:31;20.63;;;7.82;;
48925;SDS011;39838;59.938;30.642;2022-10-29T06:03:01;16.35;;;7.90;;
48925;SDS011;39838;59.938;30.642;2022-10-29T06:05:28;23.83;;;7.97;;
48925;SDS011;39838;59.938;30.642;2022-10-29T06:07:55;37.90;;;7.97;;
48925;SDS011;39838;59.938;30.642;2022-10-29T06:10:24;43.40;;;7.82;;
48925;SDS011;39838;59.938;30.642;2022-10-29T06:12:52;15.63;;;6.78;;
48925;SDS011;39838;59.938;30.642;2022-10-29T06:15:20;46.42;;;8.40;;
48925;SDS011;39838;59.938;30.642;2022-10-29T06:17:47;201.93;;;13.32;;
48925;SDS011;39838;59.938;30.642;2022-10-29T06:20:17;39.13;;;7.18;;
48925;SDS011;39838;59.938;30.642;2022-10-29T06:22:51;22.65;;;7.13;;
48925;SDS011;39838;59.938;30.642;2022-10-29T06:25:22;14.18;;;7.00;;
48925;SDS011;39838;59.938;30.642;2022-10-29T06:27:56;259.65;;;15.68;;
48925;SDS011;39838;59.938;30.642;2022-10-29T06:30:24;74.45;;;9.45;;
48925;SDS011;39838;59.938;30.642;2022-10-29T06:32:51;19.48;;;8.40;;
48925;SDS011;39838;59.938;30.642;2022-10-29T06:35:20;42.40;;;8.82;;
48925;SDS011;39838;59.938;30.642;2022-10-29T06:37:48;14.73;;;7.95;;
48925;SDS011;39838;59.938;30.642;2022-10-29T06:40:15;23.98;;;8.63;;
48925;SDS011;39838;59.938;30.642;2022-10-29T06:42:43;30.17;;;8.55;;
48925;SDS011;39838;59.938;30.642;2022-10-29T06:45:10;49.20;;;10.07;;
48925;SDS011;39838;59.938;30.642;2022-10-29T06:47:38;20.00;;;8.25;;
48925;SDS011;39838;59.938;30.642;2022-10-29T06:50:06;17.67;;;8.05;;
48925;SDS011;39838;59.938;30.642;2022-10-29T06:52:35;40.05;;;8.65;;
48925;SDS011;39838;59.938;30.642;2022-10-29T06:55:03;139.82;;;11.95;;
48925;SDS011;39838;59.938;30.642;2022-10-29T06:57:31;23.98;;;8.45;;
48925;SDS011;39838;59.938;30.642;2022-10-29T06:59:58;33.10;;;8.57;;
48925;SDS011;39838;59.938;30.642;2022-10-29T07:02:25;25.13;;;8.02;;
48925;SDS011;39838;59.938;30.642;2022-10-29T07:04:53;15.90;;;8.10;;
48925;SDS011;39838;59.938;30.642;2022-10-29T07:07:20;14.13;;;7.70;;
48925;SDS011;39838;59.938;30.642;2022-10-29T07:09:48;33.95;;;9.68;;
48925;SDS011;39838;59.938;30.642;2022-10-29T07:12:15;16.60;;;8.98;;
48925;SDS011;39838;59.938;30.642;2022-10-29T07:14:42;23.77;;;10.93;;
48925;SDS011;39838;59.938;30.642;2022-10-29T07:17:09;19.75;;;10.65;;
48925;SDS011;39838;59.938;30.642;2022-10-29T07:19:36;24.63;;;10.82;;
48925;SDS011;39838;59.938;30.642;2022-10-29T07:22:04;22.63;;;11.50;;
48925;SDS011;39838;59.938;30.642;2022-10-29T07:24:31;22.95;;;10.38;;
48925;SDS011;39838;59.938;30.642;2022-10-29T07:26:59;20.23;;;9.98;;
48925;SDS011;39838;59.938;30.642;2022-10-29T07:29:26;20.00;;;9.68;;
48925;SDS011;39838;59.938;30.642;2022-10-29T07:31:54;15.05;;;9.38;;
48925;SDS011;39838;59.938;30.642;2022-10-29T07:34:21;14.02;;;8.90;;
48925;SDS011;39838;59.938;30.642;2022-10-29T07:36:48;14.15;;;8.48;;
48925;SDS011;39838;59.938;30.642;2022-10-29T07:39:15;13.25;;;8.68;;
48925;SDS011;39838;59.938;30.642;2022-10-29T07:41:43;13.27;;;8.88;;
48925;SDS011;39838;59.938;30.642;2022-10-29T07:44:12;14.32;;;8.82;;
48925;SDS011;39838;59.938;30.642;2022-10-29T07:46:39;14.45;;;9.52;;
48925;SDS011;39838;59.938;30.642;2022-10-29T07:49:06;14.68;;;10.20;;
48925;SDS011;39838;59.938;30.642;2022-10-29T07:51:33;15.90;;;9.85;;
48925;SDS011;39838;59.938;30.642;2022-10-29T07:54:00;15.00;;;10.18;;
48925;SDS011;39838;59.938;30.642;2022-10-29T07:56:27;15.40;;;10.48;;
48925;SDS011;39838;59.938;30.642;2022-10-29T07:58:54;17.58;;;11.00;;
48925;SDS011;39838;59.938;30.642;2022-10-29T08:01:23;17.80;;;11.30;;
48925;SDS011;39838;59.938;30.642;2022-10-29T08:03:50;18.13;;;12.00;;
48925;SDS011;39838;59.938;30.642;2022-10-29T08:06:17;19.10;;;13.02;;
48925;SDS011;39838;59.938;30.642;2022-10-29T08:08:44;22.02;;;13.48;;
48925;SDS011;39838;59.938;30.642;2022-10-29T08:11:11;20.40;;;12.85;;
48925;SDS011;39838;59.938;30.642;2022-10-29T08:13:38;21.17;;;13.20;;
48925;SDS011;39838;59.938;30.642;2022-10-29T08:16:05;22.90;;;11.85;;
48925;SDS011;39838;59.938;30.642;2022-10-29T08:18:34;19.02;;;12.27;;
48925;SDS011;39838;59.938;30.642;2022-10-29T08:21:02;21.20;;;10.90;;
48925;SDS011;39838;59.938;30.642;2022-10-29T08:23:30;19.25;;;11.48;;
48925;SDS011;39838;59.938;30.642;2022-10-29T08:25:57;18.58;;;11.55;;
48925;SDS011;39838;59.938;30.642;2022-10-29T08:28:24;16.88;;;10.85;;
48925;SDS011;39838;59.938;30.642;2022-10-29T08:30:51;18.13;;;11.15;;
48925;SDS011;39838;59.938;30.642;2022-10-29T08:33:18;18.60;;;10.48;;
48925;SDS011;39838;59.938;30.642;2022-10-29T08:35:47;17.85;;;10.20;;
48925;SDS011;39838;59.938;30.642;2022-10-29T08:38:14;23.55;;;10.25;;
48925;SDS011;39838;59.938;30.642;2022-10-29T08:40:45;23.23;;;10.75;;
48925;SDS011;39838;59.938;30.642;2022-10-29T08:46:32;18.15;;;12.48;;
48925;SDS011;39838;59.938;30.642;2022-10-29T08:49:09;16.90;;;10.77;;
48925;SDS011;39838;59.938;30.642;2022-10-29T08:51:42;22.83;;;11.55;;
48925;SDS011;39838;59.938;30.642;2022-10-29T08:54:14;17.33;;;10.98;;
48925;SDS011;39838;59.938;30.642;2022-10-29T08:56:42;18.50;;;11.98;;
48925;SDS011;39838;59.938;30.642;2022-10-29T08:59:14;21.08;;;12.18;;
48925;SDS011;39838;59.938;30.642;2022-10-29T09:01:43;18.63;;;12.35;;
48925;SDS011;39838;59.938;30.642;2022-10-29T09:04:18;17.73;;;11.82;;
48925;SDS011;39838;59.938;30.642;2022-10-29T09:06:55;21.15;;;12.85;;
48925;SDS011;39838;59.938;30.642;2022-10-29T09:09:30;19.70;;;13.00;;
48925;SDS011;39838;59.938;30.642;2022-10-29T09:12:10;18.88;;;12.65;;
48925;SDS011;39838;59.938;30.642;2022-10-29T09:14:51;18.58;;;12.45;;
48925;SDS011;39838;59.938;30.642;2022-10-29T09:17:41;16.75;;;12.50;;
48925;SDS011;39838;59.938;30.642;2022-10-29T09:20:19;16.27;;;11.73;;
48925;SDS011;39838;59.938;30.642;2022-10-29T09:22:55;17.33;;;11.10;;
48925;SDS011;39838;59.938;30.642;2022-10-29T09:25:34;19.30;;;10.23;;
48925;SDS011;39838;59.938;30.642;2022-10-29T09:28:13;17.40;;;11.13;;
48925;SDS011;39838;59.938;30.642;2022-10-29T09:30:52;16.48;;;10.48;;
48925;SDS011;39838;59.938;30.642;2022-10-29T09:33:25;17.03;;;10.13;;
48925;SDS011;39838;59.938;30.642;2022-10-29T09:35:53;18.08;;;10.25;;
48925;SDS011;39838;59.938;30.642;2022-10-29T09:38:23;16.92;;;9.63;;
48925;SDS011;39838;59.938;30.642;2022-10-29T09:40:55;14.38;;;9.05;;
48925;SDS011;39838;59.938;30.642;2022-10-29T09:43:29;17.67;;;10.23;;
48925;SDS011;39838;59.938;30.642;2022-10-29T09:46:03;37.10;;;26.52;;
48925;SDS011;39838;59.938;30.642;2022-10-29T09:48:39;48.67;;;35.78;;
48925;SDS011;39838;59.938;30.642;2022-10-29T09:51:14;59.45;;;41.38;;
48925;SDS011;39838;59.938;30.642;2022-10-29T09:53:53;54.45;;;37.72;;
48925;SDS011;39838;59.938;30.642;2022-10-29T09:56:20;40.15;;;30.10;;
48925;SDS011;39838;59.938;30.642;2022-10-29T09:58:48;34.42;;;22.02;;
48925;SDS011;39838;59.938;30.642;2022-10-29T10:01:20;35.72;;;20.40;;
48925;SDS011;39838;59.938;30.642;2022-10-29T10:03:47;20.48;;;14.60;;
48925;SDS011;39838;59.938;30.642;2022-10-29T10:06:20;17.35;;;11.32;;
48925;SDS011;39838;59.938;30.642;2022-10-29T10:09:01;18.63;;;10.55;;
48925;SDS011;39838;59.938;30.642;2022-10-29T10:11:33;17.58;;;10.05;;
48925;SDS011;39838;59.938;30.642;2022-10-29T10:14:04;18.52;;;9.13;;
48925;SDS011;39838;59.938;30.642;2022-10-29T10:16:41;16.95;;;9.20;;
48925;SDS011;39838;59.938;30.642;2022-10-29T10:19:20;21.80;;;9.35;;
48925;SDS011;39838;59.938;30.642;2022-10-29T10:21:54;16.73;;;9.23;;
48925;SDS011;39838;59.938;30.642;2022-10-29T10:24:29;18.00;;;8.88;;
48925;SDS011;39838;59.938;30.642;2022-10-29T10:26:57;19.80;;;8.80;;
48925;SDS011;39838;59.938;30.642;2022-10-29T10:29:24;14.77;;;8.35;;
48925;SDS011;39838;59.938;30.642;2022-10-29T10:34:40;12.20;;;8.07;;
48925;SDS011;39838;59.938;30.642;2022-10-29T10:37:10;14.88;;;7.35;;
48925;SDS011;39838;59.938;30.642;2022-10-29T10:39:44;16.70;;;7.15;;
48925;SDS011;39838;59.938;30.642;2022-10-29T10:42:14;15.60;;;7.15;;
48925;SDS011;39838;59.938;30.642;2022-10-29T10:44:45;13.00;;;7.20;;
48925;SDS011;39838;59.938;30.642;2022-10-29T10:47:16;12.77;;;7.10;;
48925;SDS011;39838;59.938;30.642;2022-10-29T10:49:45;13.57;;;6.93;;
48925;SDS011;39838;59.938;30.642;2022-10-29T10:52:14;9.80;;;5.85;;
48925;SDS011;39838;59.938;30.642;2022-10-29T10:54:45;11.90;;;6.60;;
48925;SDS011;39838;59.938;30.642;2022-10-29T10:57:21;10.20;;;6.07;;
48925;SDS011;39838;59.938;30.642;2022-10-29T10:59:56;12.55;;;5.50;;
48925;SDS011;39838;59.938;30.642;2022-10-29T11:02:35;10.45;;;5.25;;
48925;SDS011;39838;59.938;30.642;2022-10-29T11:05:15;8.57;;;4.88;;
48925;SDS011;39838;59.938;30.642;2022-10-29T11:07:45;10.20;;;5.30;;
48925;SDS011;39838;59.938;30.642;2022-10-29T11:10:17;8.88;;;4.93;;
48925;SDS011;39838;59.938;30.642;2022-10-29T11:12:49;12.57;;;5.28;;
48925;SDS011;39838;59.938;30.642;2022-10-29T11:15:21;7.95;;;5.13;;
48925;SDS011;39838;59.938;30.642;2022-10-29T11:17:58;11.13;;;4.95;;
48925;SDS011;39838;59.938;30.642;2022-10-29T11:20:30;11.13;;;5.38;;
48925;SDS011;39838;59.938;30.642;2022-10-29T11:23:03;11.70;;;5.20;;
48925;SDS011;39838;59.938;30.642;2022-10-29T11:25:47;10.73;;;5.10;;
48925;SDS011;39838;59.938;30.642;2022-10-29T11:28:20;8.93;;;5.28;;
48925;SDS011;39838;59.938;30.642;2022-10-29T11:30:53;7.38;;;5.40;;
48925;SDS011;39838;59.938;30.642;2022-10-29T11:33:25;7.82;;;5.07;;
48925;SDS011;39838;59.938;30.642;2022-10-29T11:36:10;7.80;;;5.43;;
48925;SDS011;39838;59.938;30.642;2022-10-29T11:38:43;11.02;;;5.50;;
48925;SDS011;39838;59.938;30.642;2022-10-29T11:41:18;8.02;;;5.75;;
48925;SDS011;39838;59.938;30.642;2022-10-29T11:43:51;10.10;;;7.40;;
48925;SDS011;39838;59.938;30.642;2022-10-29T11:46:20;8.77;;;6.60;;
48925;SDS011;39838;59.938;30.642;2022-10-29T11:48:56;9.05;;;5.60;;
48925;SDS011;39838;59.938;30.642;2022-10-29T11:51:34;7.85;;;5.35;;
48925;SDS011;39838;59.938;30.642;2022-10-29T11:54:09;6.18;;;4.72;;
48925;SDS011;39838;59.938;30.642;2022-10-29T11:56:49;8.82;;;5.38;;
48925;SDS011;39838;59.938;30.642;2022-10-29T11:59:21;8.50;;;5.63;;
48925;SDS011;39838;59.938;30.642;2022-10-29T12:02:01;10.52;;;6.50;;
48925;SDS011;39838;59.938;30.642;2022-10-29T12:04:42;10.27;;;7.05;;
48925;SDS011;39838;59.938;30.642;2022-10-29T12:07:16;10.82;;;7.60;;
48925;SDS011;39838;59.938;30.642;2022-10-29T12:12:49;11.00;;;7.75;;
48925;SDS011;39838;59.938;30.642;2022-10-29T12:15:25;11.10;;;7.35;;
48925;SDS011;39838;59.938;30.642;2022-10-29T12:18:00;11.82;;;7.53;;
48925;SDS011;39838;59.938;30.642;2022-10-29T12:20:38;9.80;;;6.68;;
48925;SDS011;39838;59.938;30.642;2022-10-29T12:23:14;10.05;;;6.10;;
48925;SDS011;39838;59.938;30.642;2022-10-29T12:25:53;10.05;;;6.25;;
48925;SDS011;39838;59.938;30.642;2022-10-29T12:28:32;9.30;;;6.15;;
48925;SDS011;39838;59.938;30.642;2022-10-29T12:31:12;10.07;;;6.30;;
48925;SDS011;39838;59.938;30.642;2022-10-29T12:33:51;11.00;;;6.80;;
48925;SDS011;39838;59.938;30.642;2022-10-29T12:36:27;12.57;;;7.47;;
48925;SDS011;39838;59.938;30.642;2022-10-29T12:39:02;9.52;;;6.97;;
48925;SDS011;39838;59.938;30.642;2022-10-29T12:41:35;9.45;;;7.60;;
48925;SDS011;39838;59.938;30.642;2022-10-29T12:44:08;9.27;;;7.07;;
48925;SDS011;39838;59.938;30.642;2022-10-29T12:46:45;10.05;;;6.88;;
48925;SDS011;39838;59.938;30.642;2022-10-29T12:49:21;8.82;;;6.95;;
48925;SDS011;39838;59.938;30.642;2022-10-29T12:52:03;10.90;;;8.18;;
48925;SDS011;39838;59.938;30.642;2022-10-29T12:54:37;12.57;;;8.70;;
48925;SDS011;39838;59.938;30.642;2022-10-29T12:57:17;14.05;;;9.30;;
48925;SDS011;39838;59.938;30.642;2022-10-29T12:59:54;14.85;;;10.88;;
48925;SDS011;39838;59.938;30.642;2022-10-29T13:02:40;17.02;;;11.73;;
48925;SDS011;39838;59.938;30.642;2022-10-29T13:05:16;13.45;;;10.50;;
48925;SDS011;39838;59.938;30.642;2022-10-29T13:10:51;7.85;;;6.57;;
48925;SDS011;39838;59.938;30.642;2022-10-29T13:16:19;7.57;;;5.50;;
48925;SDS011;39838;59.938;30.642;2022-10-29T13:18:57;7.68;;;5.35;;
48925;SDS011;39838;59.938;30.642;2022-10-29T13:24:20;9.25;;;6.20;;
48925;SDS011;39838;59.938;30.642;2022-10-29T13:27:01;8.93;;;5.72;;
48925;SDS011;39838;59.938;30.642;2022-10-29T13:29:43;10.13;;;5.90;;
48925;SDS011;39838;59.938;30.642;2022-10-29T13:32:32;8.18;;;5.75;;
48925;SDS011;39838;59.938;30.642;2022-10-29T13:35:02;9.32;;;5.97;;
48925;SDS011;39838;59.938;30.642;2022-10-29T13:37:38;8.05;;;6.10;;
48925;SDS011;39838;59.938;30.642;2022-10-29T13:43:26;7.95;;;5.55;;
48925;SDS011;39838;59.938;30.642;2022-10-29T13:46:02;11.20;;;5.53;;
48925;SDS011;39838;59.938;30.642;2022-10-29T13:48:54;7.18;;;5.40;;
48925;SDS011;39838;59.938;30.642;2022-10-29T13:51:27;9.15;;;5.60;;
48925;SDS011;39838;59.938;30.642;2022-10-29T13:54:03;8.57;;;5.75;;
48925;SDS011;39838;59.938;30.642;2022-10-29T13:56:36;9.65;;;5.75;;
48925;SDS011;39838;59.938;30.642;2022-10-29T13:59:12;8.98;;;5.90;;
48925;SDS011;39838;59.938;30.642;2022-10-29T14:01:49;9.30;;;5.78;;
48925;SDS011;39838;59.938;30.642;2022-10-29T14:04:26;6.40;;;4.68;;
48925;SDS011;39838;59.938;30.642;2022-10-29T14:06:59;8.32;;;5.32;;
48925;SDS011;39838;59.938;30.642;2022-10-29T14:09:33;7.38;;;4.72;;
48925;SDS011;39838;59.938;30.642;2022-10-29T14:12:06;7.57;;;4.80;;
48925;SDS011;39838;59.938;30.642;2022-10-29T14:14:47;7.35;;;4.80;;
48925;SDS011;39838;59.938;30.642;2022-10-29T14:17:21;6.85;;;4.88;;
48925;SDS011;39838;59.938;30.642;2022-10-29T14:19:50;5.72;;;4.60;;
48925;SDS011;39838;59.938;30.642;2022-10-29T14:22:31;6.68;;;5.13;;
48925;SDS011;39838;59.938;30.642;2022-10-29T14:25:01;6.90;;;5.05;;
48925;SDS011;39838;59.938;30.642;2022-10-29T14:27:46;10.13;;;5.28;;
48925;SDS011;39838;59.938;30.642;2022-10-29T14:30:15;9.30;;;5.50;;
48925;SDS011;39838;59.938;30.642;2022-10-29T14:32:45;8.82;;;5.00;;
48925;SDS011;39838;59.938;30.642;2022-10-29T14:35:17;13.45;;;5.05;;
48925;SDS011;39838;59.938;30.642;2022-10-29T14:37:44;8.93;;;5.40;;
48925;SDS011;39838;59.938;30.642;2022-10-29T14:40:15;12.30;;;4.70;;
48925;SDS011;39838;59.938;30.642;2022-10-29T14:42:46;6.47;;;3.80;;
48925;SDS011;39838;59.938;30.642;2022-10-29T14:45:18;8.75;;;3.92;;
48925;SDS011;39838;59.938;30.642;2022-10-29T14:47:49;11.13;;;4.20;;
48925;SDS011;39838;59.938;30.642;2022-10-29T14:50:20;10.15;;;3.70;;
48925;SDS011;39838;59.938;30.642;2022-10-29T14:52:50;6.45;;;3.88;;
48925;SDS011;39838;59.938;30.642;2022-10-29T14:55:20;7.80;;;3.90;;
48925;SDS011;39838;59.938;30.642;2022-10-29T14:57:50;5.05;;;3.67;;
48925;SDS011;39838;59.938;30.642;2022-10-29T15:00:26;4.97;;;3.20;;
48925;SDS011;39838;59.938;30.642;2022-10-29T15:02:55;4.03;;;2.90;;
48925;SDS011;39838;59.938;30.642;2022-10-29T15:05:25;4.63;;;3.10;;
48925;SDS011;39838;59.938;30.642;2022-10-29T15:08:04;6.30;;;3.50;;
48925;SDS011;39838;59.938;30.642;2022-10-29T15:10:32;4.72;;;2.75;;
48925;SDS011;39838;59.938;30.642;2022-10-29T15:13:17;4.57;;;2.50;;